createdAt,value
2022-09-05T00:02:33.153Z,2.50
2022-09-05T00:06:00.124Z,3.00
2022-09-05T00:09:08.956Z,2.90
2022-09-05T00:12:00.746Z,2.63
2022-09-05T00:15:17.721Z,2.63
2022-09-05T00:24:16.999Z,2.97
2022-09-05T00:24:29.711Z,2.80
2022-09-05T00:25:30.405Z,2.30
2022-09-05T00:28:29.646Z,2.53
2022-09-05T00:31:54.633Z,2.70
2022-09-05T00:34:58.993Z,2.40
2022-09-05T00:37:49.037Z,2.80
2022-09-05T00:40:52.433Z,2.67
2022-09-05T00:43:46.702Z,3.37
2022-09-05T00:46:37.273Z,2.53
2022-09-05T00:49:36.366Z,2.77
2022-09-05T00:52:50.528Z,2.37
2022-09-05T00:56:51.205Z,2.87
2022-09-05T00:59:58.472Z,2.67
2022-09-05T01:02:52.158Z,2.57
2022-09-05T01:05:47.362Z,2.70
2022-09-05T01:09:07.375Z,3.07
2022-09-05T01:12:15.409Z,2.30
2022-09-05T01:15:22.579Z,2.43
2022-09-05T01:18:27.462Z,2.80
2022-09-05T01:21:20.169Z,2.53
2022-09-05T01:24:39.609Z,3.47
2022-09-05T01:29:13.298Z,2.70
2022-09-05T01:31:17.436Z,2.77
2022-09-05T01:34:16.766Z,2.93
2022-09-05T01:37:32.765Z,2.80
2022-09-05T01:40:29.250Z,2.67
2022-09-05T01:43:52.253Z,2.87
2022-09-05T01:46:58.935Z,2.70
2022-09-05T01:50:01.629Z,2.80
2022-09-05T01:53:26.673Z,2.57
2022-09-05T01:56:30.753Z,2.40
2022-09-05T01:59:33.437Z,2.40
2022-09-05T02:02:36.662Z,2.77
2022-09-05T02:05:48.311Z,3.00
2022-09-05T02:08:54.614Z,3.07
2022-09-05T02:11:44.817Z,2.50
2022-09-05T02:15:07.225Z,2.80
2022-09-05T02:18:06.521Z,3.20
2022-09-05T02:21:01.934Z,3.23
2022-09-05T02:24:13.114Z,2.70
2022-09-05T02:27:40.234Z,3.23
2022-09-05T02:31:00.348Z,3.00
2022-09-05T02:34:02.647Z,3.00
2022-09-05T02:37:04.312Z,3.67
2022-09-05T02:45:06.149Z,3.43
2022-09-05T02:45:18.108Z,3.77
2022-09-05T02:46:46.713Z,3.60
2022-09-05T02:52:26.108Z,3.60
2022-09-05T02:57:34.734Z,3.63
2022-09-05T02:57:40.977Z,3.00
2022-09-05T02:59:53.138Z,2.57
2022-09-05T03:03:00.838Z,2.87
2022-09-05T03:06:01.482Z,3.20
2022-09-05T03:09:16.955Z,3.27
2022-09-05T03:12:52.165Z,3.10
2022-09-05T03:16:22.143Z,3.83
2022-09-05T03:19:31.156Z,2.90
2022-09-05T03:22:37.378Z,2.97
2022-09-05T03:25:56.011Z,3.57
2022-09-05T03:29:16.433Z,3.33
2022-09-05T03:32:24.627Z,2.97
2022-09-05T03:35:29.851Z,3.40
2022-09-05T03:38:47.268Z,2.93
2022-09-05T03:42:15.201Z,2.90
2022-09-05T03:45:34.955Z,3.17
2022-09-05T03:48:42.202Z,3.07
2022-09-05T03:57:07.415Z,3.57
2022-09-05T03:57:18.178Z,2.70
2022-09-05T03:58:56.007Z,3.10
2022-09-05T04:04:54.896Z,3.27
2022-09-05T04:08:15.369Z,2.80
2022-09-05T04:08:41.953Z,2.60
2022-09-05T04:11:39.042Z,2.77
2022-09-05T04:14:27.683Z,3.40
2022-09-05T04:17:37.202Z,2.73
2022-09-05T04:21:01.540Z,3.00
2022-09-05T04:24:15.648Z,3.13
2022-09-05T04:27:13.273Z,3.67
2022-09-05T04:30:39.639Z,3.77
2022-09-05T04:33:36.280Z,2.60
2022-09-05T04:36:28.948Z,3.00
2022-09-05T04:39:18.498Z,3.23
2022-09-05T04:42:04.976Z,2.97
2022-09-05T04:45:08.355Z,3.20
2022-09-05T04:48:00.123Z,3.00
2022-09-05T04:51:04.543Z,3.20
2022-09-05T04:53:55.465Z,3.40
2022-09-05T04:56:49.140Z,2.80
2022-09-05T05:02:59.729Z,3.93
2022-09-05T05:06:09.243Z,3.20
2022-09-05T05:06:37.895Z,3.00
2022-09-05T05:09:39.205Z,3.13
2022-09-05T05:17:56.693Z,3.27
2022-09-05T05:17:56.859Z,3.10
2022-09-05T05:19:18.853Z,3.00
2022-09-05T05:22:14.750Z,3.30
2022-09-05T05:25:01.891Z,3.40
2022-09-05T05:28:14.981Z,3.00
2022-09-05T05:31:18.395Z,3.20
2022-09-05T05:34:23.966Z,2.90
2022-09-05T05:37:26.954Z,3.30
2022-09-05T05:40:16.382Z,3.17
2022-09-05T05:43:18.941Z,3.93
2022-09-05T05:46:08.278Z,3.73
2022-09-05T05:49:07.903Z,3.30
2022-09-05T05:52:03.692Z,2.83
2022-09-05T05:55:27.103Z,2.87
2022-09-05T05:58:15.721Z,3.10
2022-09-05T06:01:32.933Z,3.13
2022-09-05T06:04:49.087Z,3.07
2022-09-05T06:09:11.398Z,3.63
2022-09-05T06:14:57.129Z,3.30
2022-09-05T06:15:11.531Z,3.20
2022-09-05T06:18:37.193Z,3.13
2022-09-05T06:22:09.627Z,3.53
2022-09-05T06:25:17.546Z,3.80
2022-09-05T06:28:35.308Z,3.30
2022-09-05T06:31:29.993Z,3.10
2022-09-05T06:34:45.102Z,3.40
2022-09-05T06:37:54.421Z,3.13
2022-09-05T06:41:02.139Z,3.93
2022-09-05T06:43:51.484Z,3.77
2022-09-05T06:46:54.332Z,3.70
2022-09-05T06:50:24.434Z,3.70
2022-09-05T06:53:26.240Z,3.37
2022-09-05T06:56:26.201Z,3.40
2022-09-05T06:59:49.906Z,3.33
2022-09-05T07:03:00.231Z,3.73
2022-09-05T07:06:07.471Z,4.17
2022-09-05T07:09:01.485Z,3.73
2022-09-05T07:12:08.969Z,3.40
2022-09-05T07:15:10.162Z,3.07
2022-09-05T07:18:54.421Z,3.37
2022-09-05T07:22:47.813Z,3.57
2022-09-05T07:25:44.404Z,3.40
2022-09-05T07:28:31.706Z,3.00
2022-09-05T07:31:26.356Z,2.90
2022-09-05T07:34:32.115Z,3.20
2022-09-05T07:37:25.658Z,2.93
2022-09-05T07:40:26.164Z,2.63
2022-09-05T07:43:22.386Z,3.20
2022-09-05T07:46:19.954Z,2.97
2022-09-05T07:49:14.475Z,2.43
2022-09-05T07:56:50.806Z,2.90
2022-09-05T07:56:54.863Z,2.87
2022-09-05T07:58:49.962Z,2.47
2022-09-05T08:01:42.333Z,2.63
2022-09-05T08:04:34.993Z,3.13
2022-09-05T08:07:47.249Z,1.90
2022-09-05T08:11:22.364Z,2.20
2022-09-05T08:14:43.693Z,2.50
2022-09-05T08:17:10.608Z,2.50
2022-09-05T08:20:17.327Z,2.50
2022-09-05T08:23:30.473Z,2.40
2022-09-05T08:26:29.246Z,2.57
2022-09-05T08:29:36.874Z,1.90
2022-09-05T08:32:49.629Z,2.00
2022-09-05T08:35:56.157Z,1.97
2022-09-05T08:38:47.474Z,2.30
2022-09-05T08:41:51.137Z,2.03
2022-09-05T08:46:41.809Z,1.97
2022-09-05T08:47:58.515Z,1.90
2022-09-05T08:50:51.069Z,2.50
2022-09-05T08:54:03.318Z,2.20
2022-09-05T08:57:10.199Z,1.97
2022-09-05T09:00:20.124Z,2.20
2022-09-05T09:03:14.303Z,1.93
2022-09-05T09:06:36.643Z,2.23
2022-09-05T09:09:41.229Z,1.83
2022-09-05T09:12:59.415Z,2.00
2022-09-05T09:15:45.817Z,2.27
2022-09-05T09:18:59.203Z,2.07
2022-09-05T09:21:58.208Z,1.80
2022-09-05T09:25:12.060Z,1.83
2022-09-05T09:28:50.590Z,1.60
2022-09-05T09:31:52.178Z,1.90
2022-09-05T09:34:59.770Z,1.75
2022-09-05T09:38:06.827Z,1.98
2022-09-05T09:41:05.452Z,1.80
2022-09-05T09:44:26.365Z,2.03
2022-09-05T09:47:17.141Z,2.35
2022-09-05T09:50:19.323Z,1.88
2022-09-05T09:53:14.288Z,2.22
2022-09-05T09:56:40.611Z,1.85
2022-09-05T10:00:04.356Z,1.80
2022-09-05T10:10:09.941Z,1.92
2022-09-05T10:10:51.623Z,1.77
2022-09-05T10:11:09.345Z,1.60
2022-09-05T10:13:21.341Z,1.63
2022-09-05T10:16:26.604Z,1.85
2022-09-05T10:23:15.658Z,1.80
2022-09-05T10:26:39.761Z,2.22
2022-09-05T10:29:43.631Z,1.67
2022-09-05T10:35:06.118Z,1.85
2022-09-05T10:35:51.431Z,1.70
2022-09-05T10:38:45.022Z,1.88
2022-09-05T10:41:49.160Z,1.73
2022-09-05T10:44:40.551Z,1.58
2022-09-05T10:47:48.234Z,1.80
2022-09-05T10:51:00.609Z,2.13
2022-09-05T10:54:24.039Z,1.80
2022-09-05T10:57:20.495Z,1.95
2022-09-05T11:02:20.027Z,1.75
2022-09-05T11:03:32.273Z,1.80
2022-09-05T11:06:25.949Z,1.70
2022-09-05T11:09:56.125Z,2.20
2022-09-05T11:12:58.523Z,1.60
2022-09-05T11:16:04.877Z,1.80
2022-09-05T11:19:04.435Z,2.13
2022-09-05T11:22:24.056Z,1.80
2022-09-05T11:25:36.140Z,2.00
2022-09-05T11:29:00.261Z,1.80
2022-09-05T11:36:41.533Z,1.80
2022-09-05T11:39:53.547Z,1.92
2022-09-05T11:40:10.061Z,1.83
2022-09-05T11:41:58.233Z,1.90
2022-09-05T11:45:05.984Z,2.00
2022-09-05T11:48:24.556Z,1.90
2022-09-05T11:51:33.888Z,2.33
2022-09-05T11:54:57.995Z,2.08
2022-09-05T11:58:44.071Z,2.00
2022-09-05T12:01:42.990Z,1.95
2022-09-05T12:05:47.315Z,2.00
2022-09-05T12:08:31.202Z,1.85
2022-09-05T12:11:43.386Z,2.00
2022-09-05T12:14:55.094Z,2.03
2022-09-05T12:18:19.133Z,1.92
2022-09-05T12:22:08.786Z,1.85
2022-09-05T12:27:35.981Z,2.30
2022-09-05T12:33:30.763Z,1.88
2022-09-05T12:36:10.819Z,2.03
2022-09-05T12:40:56.916Z,1.98
2022-09-05T12:41:41.809Z,1.80
2022-09-05T12:42:08.531Z,1.73
2022-09-05T12:45:18.800Z,1.83
2022-09-05T12:48:12.784Z,2.38
2022-09-05T12:51:10.479Z,1.65
2022-09-05T12:54:00.707Z,1.70
2022-09-05T12:58:37.293Z,2.10
2022-09-05T13:03:05.818Z,1.67
2022-09-05T13:03:40.756Z,1.90
2022-09-05T13:06:39.052Z,2.20
2022-09-05T13:10:35.180Z,1.80
2022-09-05T13:14:54.909Z,1.80
2022-09-05T13:15:56.773Z,2.08
2022-09-05T13:18:44.217Z,1.60
2022-09-05T13:21:31.456Z,1.77
2022-09-05T13:24:27.738Z,1.88
2022-09-05T13:27:20.588Z,1.80
2022-09-05T13:34:46.486Z,1.85
2022-09-05T13:38:02.273Z,1.80
2022-09-05T13:38:17.982Z,2.00
2022-09-05T13:39:48.139Z,2.08
2022-09-05T13:42:40.570Z,2.42
2022-09-05T13:45:29.672Z,2.05
2022-09-05T13:48:27.514Z,2.10
2022-09-05T13:51:36.622Z,2.20
2022-09-05T13:54:48.897Z,1.60
2022-09-05T13:57:46.304Z,2.10
2022-09-05T14:00:35.407Z,1.98
2022-09-05T14:03:46.757Z,1.92
2022-09-05T14:06:48.905Z,2.13
2022-09-05T14:10:10.282Z,2.13
2022-09-05T14:13:19.234Z,1.90
2022-09-05T14:16:18.130Z,1.95
2022-09-05T14:19:37.607Z,2.03
2022-09-05T14:22:53.896Z,2.00
2022-09-05T14:25:44.709Z,1.92
2022-09-05T14:28:40.782Z,2.10
2022-09-05T14:37:51.716Z,1.80
2022-09-05T14:37:54.763Z,1.90
2022-09-05T14:38:56.459Z,2.00
2022-09-05T14:42:09.362Z,2.08
2022-09-05T14:45:31.029Z,2.53
2022-09-05T14:48:43.127Z,2.10
2022-09-05T14:51:34.833Z,2.40
2022-09-05T15:02:43.339Z,1.70
2022-09-05T15:02:52.715Z,1.90
2022-09-05T15:07:23.111Z,1.90
2022-09-05T15:12:14.023Z,1.98
2022-09-05T15:13:27.920Z,2.40
2022-09-05T15:16:15.500Z,2.15
2022-09-05T15:19:02.082Z,2.45
2022-09-05T15:21:48.937Z,2.33
2022-09-05T15:24:35.293Z,2.10
2022-09-05T15:27:28.962Z,1.80
2022-09-05T15:30:36.549Z,1.92
2022-09-05T15:33:26.300Z,1.90
2022-09-05T15:36:14.430Z,1.90
2022-09-05T15:39:21.977Z,2.00
2022-09-05T15:42:21.279Z,2.10
2022-09-05T15:45:12.397Z,1.92
2022-09-05T15:48:09.355Z,2.08
2022-09-05T15:51:03.146Z,2.10
2022-09-05T15:53:51.622Z,2.40
2022-09-05T15:56:47.585Z,1.88
2022-09-05T15:59:47.251Z,2.00
2022-09-05T16:02:38.412Z,1.73
2022-09-05T16:10:26.723Z,2.70
2022-09-05T16:10:57.945Z,1.70
2022-09-05T16:15:40.773Z,2.38
2022-09-05T16:23:24.620Z,2.20
2022-09-05T16:23:28.690Z,2.05
2022-09-05T16:24:58.945Z,1.90
2022-09-05T16:27:56.139Z,2.00
2022-09-05T16:30:42.522Z,2.30
2022-09-05T16:33:33.318Z,2.00
2022-09-05T16:37:07.795Z,2.20
2022-09-05T16:40:05.513Z,2.05
2022-09-05T16:42:57.724Z,2.13
2022-09-05T16:45:54.095Z,2.10
2022-09-05T16:49:15.891Z,2.38
2022-09-05T16:52:06.763Z,2.22
2022-09-05T16:55:28.982Z,2.40
2022-09-05T16:58:25.827Z,2.20
2022-09-05T17:01:32.183Z,2.05
2022-09-05T17:04:25.754Z,2.50
2022-09-05T17:07:30.618Z,2.50
2022-09-05T17:10:20.451Z,3.28
2022-09-05T17:13:11.846Z,2.95
2022-09-05T17:16:05.412Z,2.53
2022-09-05T17:18:53.532Z,2.38
2022-09-05T17:27:31.829Z,2.72
2022-09-05T17:29:25.040Z,2.00
2022-09-05T17:29:35.289Z,2.80
2022-09-05T17:34:15.428Z,2.55
2022-09-05T17:37:34.602Z,2.30
2022-09-05T17:40:45.474Z,2.50
2022-09-05T17:43:38.548Z,2.70
2022-09-05T17:46:31.787Z,2.30
2022-09-05T17:49:43.120Z,2.33
2022-09-05T17:52:29.602Z,2.23
2022-09-05T17:55:17.445Z,2.60
2022-09-05T17:58:26.871Z,2.20
2022-09-05T18:01:27.183Z,2.40
2022-09-05T18:04:48.391Z,2.57
2022-09-05T18:07:42.800Z,2.50
2022-09-05T18:11:01.095Z,2.20
2022-09-05T18:13:53.772Z,3.10
2022-09-05T18:17:35.226Z,2.53
2022-09-05T18:20:19.785Z,2.10
2022-09-05T18:23:39.705Z,3.00
2022-09-05T18:26:27.635Z,2.33
2022-09-05T18:29:58.272Z,2.60
2022-09-05T18:32:54.222Z,2.67
2022-09-05T18:35:59.494Z,2.87
2022-09-05T18:38:51.822Z,2.57
2022-09-05T18:41:41.799Z,2.80
2022-09-05T18:44:35.412Z,2.70
2022-09-05T18:47:52.811Z,3.10
2022-09-05T18:50:46.415Z,2.90
2022-09-05T18:53:34.656Z,2.60
2022-09-05T18:57:12.115Z,2.67
2022-09-05T18:59:53.503Z,2.67
2022-09-05T19:02:59.069Z,2.73
2022-09-05T19:05:49.191Z,3.03
2022-09-05T19:08:58.333Z,2.60
2022-09-05T19:12:33.518Z,2.87
2022-09-05T19:15:16.442Z,2.77
2022-09-05T19:18:36.971Z,2.80
2022-09-05T19:21:23.595Z,2.83
2022-09-05T19:24:20.915Z,3.27
2022-09-05T19:29:44.488Z,3.03
2022-09-05T19:36:45.970Z,2.40
2022-09-05T19:37:09.040Z,2.73
2022-09-05T19:45:29.217Z,2.83
2022-09-05T19:47:34.075Z,3.23
2022-09-05T19:47:41.868Z,3.00
2022-09-05T19:49:33.309Z,3.00
2022-09-05T19:52:20.043Z,3.20
2022-09-05T19:55:24.220Z,3.00
2022-09-05T19:58:20.967Z,3.80
2022-09-05T20:01:15.790Z,2.80
2022-09-05T20:04:07.135Z,3.10
2022-09-05T20:06:53.822Z,3.03
2022-09-05T20:09:46.974Z,2.90
2022-09-05T20:12:34.670Z,3.50
2022-09-05T20:15:43.658Z,3.17
2022-09-05T20:18:40.642Z,3.50
2022-09-05T20:21:30.442Z,3.17
2022-09-05T20:24:18.754Z,3.47
2022-09-05T20:27:05.326Z,3.10
2022-09-05T20:29:59.730Z,3.30
2022-09-05T20:32:54.034Z,2.70
2022-09-05T20:40:05.454Z,3.27
2022-09-05T20:43:14.578Z,3.57
2022-09-05T20:43:16.113Z,2.70
2022-09-05T20:45:43.407Z,3.13
2022-09-05T20:54:05.271Z,2.83
2022-09-05T20:54:15.236Z,3.57
2022-09-05T20:54:57.280Z,3.10
2022-09-05T20:57:44.103Z,3.20
2022-09-05T21:00:33.694Z,3.17
2022-09-05T21:03:28.722Z,3.13
2022-09-05T21:06:33.424Z,3.27
2022-09-05T21:09:24.877Z,3.30
2022-09-05T21:12:12.682Z,3.30
2022-09-05T21:15:26.974Z,4.00
2022-09-05T21:18:34.000Z,3.00
2022-09-05T21:21:41.046Z,3.17
2022-09-05T21:24:27.867Z,3.00
2022-09-05T21:27:21.784Z,3.27
2022-09-05T21:30:23.531Z,3.43
2022-09-05T21:33:21.660Z,2.80
2022-09-05T21:36:19.596Z,3.20
2022-09-05T21:39:05.989Z,3.03
2022-09-05T21:41:55.992Z,3.10
2022-09-05T21:47:41.630Z,2.90
2022-09-05T21:48:03.566Z,3.37
2022-09-05T21:50:52.999Z,3.17
2022-09-05T21:59:14.385Z,3.00
2022-09-05T21:59:18.646Z,3.27
2022-09-05T22:00:11.224Z,3.20
2022-09-05T22:03:04.906Z,2.90
2022-09-05T22:06:15.821Z,3.00
2022-09-05T22:09:13.075Z,3.33
2022-09-05T22:12:00.478Z,2.93
2022-09-05T22:15:29.165Z,3.33
2022-09-05T22:18:17.593Z,3.27
2022-09-05T22:21:33.292Z,3.20
2022-09-05T22:24:14.453Z,3.03
2022-09-05T22:27:12.190Z,3.60
2022-09-05T22:29:59.114Z,2.90
2022-09-05T22:32:45.474Z,3.13
2022-09-05T22:35:37.024Z,3.50
2022-09-05T22:38:23.531Z,3.40
2022-09-05T22:41:11.276Z,3.30
2022-09-05T22:43:59.270Z,3.97
2022-09-05T22:46:45.845Z,3.47
2022-09-05T22:49:32.286Z,3.20
2022-09-05T22:52:18.518Z,3.27
2022-09-05T22:55:05.517Z,3.23
2022-09-05T22:57:51.705Z,3.43
2022-09-05T23:00:38.434Z,3.30
2022-09-05T23:03:24.716Z,3.60
2022-09-05T23:06:11.154Z,2.70
2022-09-05T23:08:57.346Z,4.50
2022-09-05T23:11:43.768Z,3.90
2022-09-05T23:14:29.943Z,3.33
2022-09-05T23:17:16.694Z,3.63
2022-09-05T23:20:05.012Z,3.67
2022-09-05T23:22:51.580Z,3.17
2022-09-05T23:25:37.860Z,3.63
2022-09-05T23:28:24.592Z,3.50
2022-09-05T23:31:12.078Z,3.73
2022-09-05T23:33:59.013Z,3.67
2022-09-05T23:36:45.561Z,4.07
2022-09-05T23:39:31.982Z,3.30
2022-09-05T23:42:18.674Z,3.40
2022-09-05T23:45:06.888Z,3.23
2022-09-05T23:47:53.352Z,3.50
2022-09-05T23:50:39.773Z,3.60
2022-09-05T23:53:26.750Z,3.20
2022-09-05T23:56:13.155Z,4.10
2022-09-05T23:58:59.741Z,4.00
